sensor_id;sensor_type;location;lat;lon;timestamp;P1;durP1;ratioP1;P2;durP2;ratioP2
70049;SDS011;57391;51.306;22.680;2024-03-25T00:01:28;27.70;;;14.40;;
70049;SDS011;57391;51.306;22.680;2024-03-25T00:03:30;26.90;;;13.50;;
70049;SDS011;57391;51.306;22.680;2024-03-25T00:05:31;23.30;;;13.00;;
70049;SDS011;57391;51.306;22.680;2024-03-25T00:07:33;25.30;;;13.70;;
70049;SDS011;57391;51.306;22.680;2024-03-25T00:09:35;23.60;;;12.60;;
70049;SDS011;57391;51.306;22.680;2024-03-25T00:11:36;24.20;;;12.60;;
70049;SDS011;57391;51.306;22.680;2024-03-25T00:13:38;24.10;;;11.40;;
70049;SDS011;57391;51.306;22.680;2024-03-25T00:15:40;21.80;;;11.60;;
70049;SDS011;57391;51.306;22.680;2024-03-25T00:17:42;24.30;;;12.10;;
70049;SDS011;57391;51.306;22.680;2024-03-25T00:19:44;18.30;;;10.60;;
70049;SDS011;57391;51.306;22.680;2024-03-25T00:21:51;18.90;;;10.20;;
70049;SDS011;57391;51.306;22.680;2024-03-25T00:23:53;18.40;;;10.10;;
70049;SDS011;57391;51.306;22.680;2024-03-25T00:25:57;19.60;;;10.10;;
70049;SDS011;57391;51.306;22.680;2024-03-25T00:27:59;18.40;;;10.10;;
70049;SDS011;57391;51.306;22.680;2024-03-25T00:30:00;18.50;;;9.60;;
70049;SDS011;57391;51.306;22.680;2024-03-25T00:32:02;18.30;;;10.00;;
70049;SDS011;57391;51.306;22.680;2024-03-25T00:34:04;18.90;;;9.30;;
70049;SDS011;57391;51.306;22.680;2024-03-25T00:36:06;19.50;;;9.80;;
70049;SDS011;57391;51.306;22.680;2024-03-25T00:38:08;17.20;;;9.90;;
70049;SDS011;57391;51.306;22.680;2024-03-25T00:40:11;18.80;;;9.70;;
70049;SDS011;57391;51.306;22.680;2024-03-25T00:42:13;18.80;;;9.70;;
70049;SDS011;57391;51.306;22.680;2024-03-25T00:44:14;19.00;;;9.90;;
70049;SDS011;57391;51.306;22.680;2024-03-25T00:46:16;21.10;;;10.40;;
70049;SDS011;57391;51.306;22.680;2024-03-25T00:48:17;21.10;;;10.40;;
70049;SDS011;57391;51.306;22.680;2024-03-25T00:50:19;21.60;;;10.00;;
70049;SDS011;57391;51.306;22.680;2024-03-25T00:52:20;21.30;;;10.70;;
70049;SDS011;57391;51.306;22.680;2024-03-25T00:54:22;21.30;;;10.90;;
70049;SDS011;57391;51.306;22.680;2024-03-25T00:56:24;22.30;;;11.70;;
70049;SDS011;57391;51.306;22.680;2024-03-25T00:58:26;22.70;;;11.20;;
70049;SDS011;57391;51.306;22.680;2024-03-25T01:00:28;21.20;;;11.00;;
70049;SDS011;57391;51.306;22.680;2024-03-25T01:02:29;21.00;;;11.00;;
70049;SDS011;57391;51.306;22.680;2024-03-25T01:04:32;21.50;;;10.70;;
70049;SDS011;57391;51.306;22.680;2024-03-25T01:06:34;19.40;;;10.60;;
70049;SDS011;57391;51.306;22.680;2024-03-25T01:08:35;18.60;;;11.10;;
70049;SDS011;57391;51.306;22.680;2024-03-25T01:10:37;19.70;;;10.60;;
70049;SDS011;57391;51.306;22.680;2024-03-25T01:12:38;20.30;;;10.90;;
70049;SDS011;57391;51.306;22.680;2024-03-25T01:14:40;18.30;;;10.40;;
70049;SDS011;57391;51.306;22.680;2024-03-25T01:16:41;18.90;;;9.90;;
70049;SDS011;57391;51.306;22.680;2024-03-25T01:18:44;18.00;;;10.10;;
70049;SDS011;57391;51.306;22.680;2024-03-25T01:20:45;17.60;;;10.00;;
70049;SDS011;57391;51.306;22.680;2024-03-25T01:22:47;16.70;;;9.30;;
70049;SDS011;57391;51.306;22.680;2024-03-25T01:24:48;17.50;;;9.80;;
70049;SDS011;57391;51.306;22.680;2024-03-25T01:26:51;20.20;;;10.10;;
70049;SDS011;57391;51.306;22.680;2024-03-25T01:28:52;18.80;;;9.80;;
70049;SDS011;57391;51.306;22.680;2024-03-25T01:30:54;17.90;;;9.90;;
70049;SDS011;57391;51.306;22.680;2024-03-25T01:32:55;18.40;;;9.60;;
70049;SDS011;57391;51.306;22.680;2024-03-25T01:34:57;17.90;;;10.10;;
70049;SDS011;57391;51.306;22.680;2024-03-25T01:36:59;21.50;;;11.40;;
70049;SDS011;57391;51.306;22.680;2024-03-25T01:39:00;22.20;;;11.60;;
70049;SDS011;57391;51.306;22.680;2024-03-25T01:41:12;21.00;;;11.00;;
70049;SDS011;57391;51.306;22.680;2024-03-25T01:43:16;21.30;;;10.70;;
70049;SDS011;57391;51.306;22.680;2024-03-25T01:45:17;18.90;;;9.20;;
70049;SDS011;57391;51.306;22.680;2024-03-25T01:47:19;15.20;;;9.90;;
70049;SDS011;57391;51.306;22.680;2024-03-25T01:49:21;18.30;;;9.20;;
70049;SDS011;57391;51.306;22.680;2024-03-25T01:51:23;15.10;;;8.30;;
70049;SDS011;57391;51.306;22.680;2024-03-25T01:53:25;16.80;;;8.50;;
70049;SDS011;57391;51.306;22.680;2024-03-25T01:55:32;14.80;;;8.10;;
70049;SDS011;57391;51.306;22.680;2024-03-25T01:57:35;17.10;;;8.50;;
70049;SDS011;57391;51.306;22.680;2024-03-25T01:59:39;14.60;;;8.20;;
70049;SDS011;57391;51.306;22.680;2024-03-25T02:01:41;14.10;;;8.40;;
70049;SDS011;57391;51.306;22.680;2024-03-25T02:03:44;14.70;;;7.90;;
70049;SDS011;57391;51.306;22.680;2024-03-25T02:05:46;14.20;;;7.80;;
70049;SDS011;57391;51.306;22.680;2024-03-25T02:07:50;13.20;;;7.50;;
70049;SDS011;57391;51.306;22.680;2024-03-25T02:09:54;13.10;;;7.60;;
70049;SDS011;57391;51.306;22.680;2024-03-25T02:11:56;14.20;;;7.80;;
70049;SDS011;57391;51.306;22.680;2024-03-25T02:13:58;13.10;;;7.50;;
70049;SDS011;57391;51.306;22.680;2024-03-25T02:16:00;11.40;;;7.00;;
70049;SDS011;57391;51.306;22.680;2024-03-25T02:18:01;14.20;;;7.70;;
70049;SDS011;57391;51.306;22.680;2024-03-25T02:20:04;16.20;;;8.60;;
70049;SDS011;57391;51.306;22.680;2024-03-25T02:22:06;14.80;;;8.80;;
70049;SDS011;57391;51.306;22.680;2024-03-25T02:24:09;15.70;;;9.00;;
70049;SDS011;57391;51.306;22.680;2024-03-25T02:26:12;16.40;;;8.90;;
70049;SDS011;57391;51.306;22.680;2024-03-25T02:28:14;15.70;;;9.00;;
70049;SDS011;57391;51.306;22.680;2024-03-25T02:30:16;16.60;;;9.40;;
70049;SDS011;57391;51.306;22.680;2024-03-25T02:32:17;16.50;;;9.10;;
70049;SDS011;57391;51.306;22.680;2024-03-25T02:34:19;16.50;;;9.10;;
70049;SDS011;57391;51.306;22.680;2024-03-25T02:36:22;14.40;;;8.80;;
70049;SDS011;57391;51.306;22.680;2024-03-25T02:38:23;16.60;;;9.40;;
70049;SDS011;57391;51.306;22.680;2024-03-25T02:40:25;17.00;;;8.90;;
70049;SDS011;57391;51.306;22.680;2024-03-25T02:42:28;16.40;;;9.20;;
70049;SDS011;57391;51.306;22.680;2024-03-25T02:44:33;15.00;;;8.00;;
70049;SDS011;57391;51.306;22.680;2024-03-25T02:46:35;14.30;;;8.10;;
70049;SDS011;57391;51.306;22.680;2024-03-25T02:48:36;14.70;;;8.70;;
70049;SDS011;57391;51.306;22.680;2024-03-25T02:50:38;15.40;;;8.60;;
70049;SDS011;57391;51.306;22.680;2024-03-25T02:52:40;15.50;;;8.20;;
70049;SDS011;57391;51.306;22.680;2024-03-25T02:54:41;14.40;;;8.40;;
70049;SDS011;57391;51.306;22.680;2024-03-25T02:56:43;14.90;;;9.00;;
70049;SDS011;57391;51.306;22.680;2024-03-25T02:58:45;15.80;;;8.70;;
70049;SDS011;57391;51.306;22.680;2024-03-25T03:00:47;15.10;;;9.10;;
70049;SDS011;57391;51.306;22.680;2024-03-25T03:02:48;16.00;;;8.10;;
70049;SDS011;57391;51.306;22.680;2024-03-25T03:04:50;15.10;;;9.10;;
70049;SDS011;57391;51.306;22.680;2024-03-25T03:06:52;14.90;;;9.00;;
70049;SDS011;57391;51.306;22.680;2024-03-25T03:08:53;15.20;;;9.40;;
70049;SDS011;57391;51.306;22.680;2024-03-25T03:10:55;17.80;;;10.00;;
70049;SDS011;57391;51.306;22.680;2024-03-25T03:12:56;15.90;;;9.00;;
70049;SDS011;57391;51.306;22.680;2024-03-25T03:14:58;17.80;;;9.70;;
70049;SDS011;57391;51.306;22.680;2024-03-25T03:17:00;17.80;;;9.30;;
70049;SDS011;57391;51.306;22.680;2024-03-25T03:19:05;16.40;;;9.50;;
70049;SDS011;57391;51.306;22.680;2024-03-25T03:21:07;16.30;;;8.70;;
70049;SDS011;57391;51.306;22.680;2024-03-25T03:23:09;16.60;;;10.30;;
70049;SDS011;57391;51.306;22.680;2024-03-25T03:25:10;17.40;;;9.70;;
70049;SDS011;57391;51.306;22.680;2024-03-25T03:27:12;17.20;;;9.50;;
70049;SDS011;57391;51.306;22.680;2024-03-25T03:29:14;16.10;;;9.40;;
70049;SDS011;57391;51.306;22.680;2024-03-25T03:31:16;18.30;;;10.20;;
70049;SDS011;57391;51.306;22.680;2024-03-25T03:33:18;17.00;;;10.10;;
70049;SDS011;57391;51.306;22.680;2024-03-25T03:35:19;16.80;;;10.00;;
70049;SDS011;57391;51.306;22.680;2024-03-25T03:37:21;17.10;;;9.50;;
70049;SDS011;57391;51.306;22.680;2024-03-25T03:39:22;17.20;;;9.60;;
70049;SDS011;57391;51.306;22.680;2024-03-25T03:41:24;17.30;;;10.30;;
70049;SDS011;57391;51.306;22.680;2024-03-25T03:43:26;18.10;;;10.50;;
70049;SDS011;57391;51.306;22.680;2024-03-25T03:45:33;14.10;;;8.80;;
70049;SDS011;57391;51.306;22.680;2024-03-25T03:47:36;17.30;;;9.40;;
70049;SDS011;57391;51.306;22.680;2024-03-25T03:49:38;17.80;;;9.20;;
70049;SDS011;57391;51.306;22.680;2024-03-25T03:51:39;15.70;;;9.30;;
70049;SDS011;57391;51.306;22.680;2024-03-25T03:53:41;15.80;;;8.70;;
70049;SDS011;57391;51.306;22.680;2024-03-25T03:55:59;17.50;;;8.60;;
70049;SDS011;57391;51.306;22.680;2024-03-25T03:58:03;16.10;;;8.50;;
70049;SDS011;57391;51.306;22.680;2024-03-25T04:00:05;15.10;;;8.70;;
70049;SDS011;57391;51.306;22.680;2024-03-25T04:02:09;16.50;;;9.40;;
70049;SDS011;57391;51.306;22.680;2024-03-25T04:04:10;15.90;;;9.20;;
70049;SDS011;57391;51.306;22.680;2024-03-25T04:06:13;16.50;;;8.60;;
70049;SDS011;57391;51.306;22.680;2024-03-25T04:08:16;15.80;;;8.80;;
70049;SDS011;57391;51.306;22.680;2024-03-25T04:10:18;15.30;;;8.40;;
70049;SDS011;57391;51.306;22.680;2024-03-25T04:12:19;14.10;;;7.20;;
70049;SDS011;57391;51.306;22.680;2024-03-25T04:14:21;15.60;;;7.90;;
70049;SDS011;57391;51.306;22.680;2024-03-25T04:16:23;16.50;;;8.80;;
70049;SDS011;57391;51.306;22.680;2024-03-25T04:18:24;17.50;;;8.70;;
70049;SDS011;57391;51.306;22.680;2024-03-25T04:20:28;14.50;;;8.80;;
70049;SDS011;57391;51.306;22.680;2024-03-25T04:22:30;18.30;;;9.20;;
70049;SDS011;57391;51.306;22.680;2024-03-25T04:24:31;15.80;;;9.20;;
70049;SDS011;57391;51.306;22.680;2024-03-25T04:26:35;18.60;;;9.20;;
70049;SDS011;57391;51.306;22.680;2024-03-25T04:28:37;15.10;;;9.10;;
70049;SDS011;57391;51.306;22.680;2024-03-25T04:30:39;14.90;;;9.10;;
70049;SDS011;57391;51.306;22.680;2024-03-25T04:32:41;18.30;;;9.90;;
70049;SDS011;57391;51.306;22.680;2024-03-25T04:34:43;18.10;;;10.00;;
70049;SDS011;57391;51.306;22.680;2024-03-25T04:36:45;19.00;;;10.50;;
70049;SDS011;57391;51.306;22.680;2024-03-25T04:38:46;16.50;;;9.00;;
70049;SDS011;57391;51.306;22.680;2024-03-25T04:40:48;17.30;;;9.40;;
70049;SDS011;57391;51.306;22.680;2024-03-25T04:42:50;17.70;;;10.00;;
70049;SDS011;57391;51.306;22.680;2024-03-25T04:44:52;17.90;;;10.30;;
70049;SDS011;57391;51.306;22.680;2024-03-25T04:46:53;18.10;;;10.00;;
70049;SDS011;57391;51.306;22.680;2024-03-25T04:48:55;16.70;;;10.10;;
70049;SDS011;57391;51.306;22.680;2024-03-25T04:50:57;16.80;;;10.00;;
70049;SDS011;57391;51.306;22.680;2024-03-25T04:52:58;19.00;;;10.20;;
70049;SDS011;57391;51.306;22.680;2024-03-25T04:55:00;15.70;;;9.00;;
70049;SDS011;57391;51.306;22.680;2024-03-25T04:57:02;19.20;;;10.00;;
70049;SDS011;57391;51.306;22.680;2024-03-25T04:59:04;19.30;;;9.70;;
70049;SDS011;57391;51.306;22.680;2024-03-25T05:01:05;17.90;;;9.90;;
70049;SDS011;57391;51.306;22.680;2024-03-25T05:03:07;15.40;;;9.40;;
70049;SDS011;57391;51.306;22.680;2024-03-25T05:05:09;18.20;;;9.10;;
70049;SDS011;57391;51.306;22.680;2024-03-25T05:07:11;17.80;;;9.70;;
70049;SDS011;57391;51.306;22.680;2024-03-25T05:09:15;15.90;;;9.00;;
70049;SDS011;57391;51.306;22.680;2024-03-25T05:11:17;16.00;;;9.20;;
70049;SDS011;57391;51.306;22.680;2024-03-25T05:13:19;19.90;;;10.40;;
70049;SDS011;57391;51.306;22.680;2024-03-25T05:15:21;19.30;;;9.80;;
70049;SDS011;57391;51.306;22.680;2024-03-25T05:17:23;19.40;;;9.70;;
70049;SDS011;57391;51.306;22.680;2024-03-25T05:19:24;17.40;;;9.70;;
70049;SDS011;57391;51.306;22.680;2024-03-25T05:21:26;14.00;;;8.60;;
70049;SDS011;57391;51.306;22.680;2024-03-25T05:23:27;16.80;;;9.60;;
70049;SDS011;57391;51.306;22.680;2024-03-25T05:25:29;17.80;;;9.70;;
70049;SDS011;57391;51.306;22.680;2024-03-25T05:27:31;17.30;;;9.70;;
70049;SDS011;57391;51.306;22.680;2024-03-25T05:29:32;19.30;;;9.80;;
70049;SDS011;57391;51.306;22.680;2024-03-25T05:31:34;20.00;;;10.70;;
70049;SDS011;57391;51.306;22.680;2024-03-25T05:33:36;19.30;;;10.20;;
70049;SDS011;57391;51.306;22.680;2024-03-25T05:35:40;17.40;;;10.10;;
70049;SDS011;57391;51.306;22.680;2024-03-25T05:37:42;17.60;;;10.00;;
70049;SDS011;57391;51.306;22.680;2024-03-25T05:39:44;16.70;;;10.00;;
70049;SDS011;57391;51.306;22.680;2024-03-25T05:41:46;15.30;;;8.90;;
70049;SDS011;57391;51.306;22.680;2024-03-25T05:43:48;18.20;;;9.80;;
70049;SDS011;57391;51.306;22.680;2024-03-25T05:45:53;17.10;;;10.10;;
70049;SDS011;57391;51.306;22.680;2024-03-25T05:47:55;18.10;;;9.80;;
70049;SDS011;57391;51.306;22.680;2024-03-25T05:49:57;18.50;;;10.40;;
70049;SDS011;57391;51.306;22.680;2024-03-25T05:51:59;16.50;;;9.60;;
70049;SDS011;57391;51.306;22.680;2024-03-25T05:54:01;16.30;;;9.80;;
70049;SDS011;57391;51.306;22.680;2024-03-25T05:56:03;18.40;;;10.10;;
70049;SDS011;57391;51.306;22.680;2024-03-25T05:58:05;17.70;;;10.50;;
70049;SDS011;57391;51.306;22.680;2024-03-25T06:00:09;16.10;;;9.50;;
70049;SDS011;57391;51.306;22.680;2024-03-25T06:02:12;16.40;;;9.90;;
70049;SDS011;57391;51.306;22.680;2024-03-25T06:04:14;17.50;;;10.30;;
70049;SDS011;57391;51.306;22.680;2024-03-25T06:06:17;15.30;;;9.30;;
70049;SDS011;57391;51.306;22.680;2024-03-25T06:08:18;16.50;;;9.50;;
70049;SDS011;57391;51.306;22.680;2024-03-25T06:10:25;17.60;;;9.40;;
70049;SDS011;57391;51.306;22.680;2024-03-25T06:12:27;17.20;;;9.50;;
70049;SDS011;57391;51.306;22.680;2024-03-25T06:14:29;17.00;;;10.30;;
70049;SDS011;57391;51.306;22.680;2024-03-25T06:16:30;16.90;;;9.70;;
70049;SDS011;57391;51.306;22.680;2024-03-25T06:18:32;17.10;;;10.20;;
70049;SDS011;57391;51.306;22.680;2024-03-25T06:20:34;17.60;;;9.80;;
70049;SDS011;57391;51.306;22.680;2024-03-25T06:22:35;18.50;;;9.70;;
70049;SDS011;57391;51.306;22.680;2024-03-25T06:24:37;14.90;;;8.90;;
70049;SDS011;57391;51.306;22.680;2024-03-25T06:26:39;16.80;;;9.90;;
70049;SDS011;57391;51.306;22.680;2024-03-25T06:28:41;17.70;;;10.20;;
70049;SDS011;57391;51.306;22.680;2024-03-25T06:30:45;18.10;;;10.40;;
70049;SDS011;57391;51.306;22.680;2024-03-25T06:33:05;19.10;;;10.00;;
70049;SDS011;57391;51.306;22.680;2024-03-25T06:35:25;18.70;;;10.20;;
70049;SDS011;57391;51.306;22.680;2024-03-25T06:37:27;17.00;;;9.90;;
70049;SDS011;57391;51.306;22.680;2024-03-25T06:39:29;17.40;;;10.00;;
70049;SDS011;57391;51.306;22.680;2024-03-25T06:41:30;14.80;;;9.20;;
70049;SDS011;57391;51.306;22.680;2024-03-25T06:43:32;16.60;;;9.30;;
70049;SDS011;57391;51.306;22.680;2024-03-25T06:45:34;15.00;;;9.10;;
70049;SDS011;57391;51.306;22.680;2024-03-25T06:47:35;17.70;;;9.90;;
70049;SDS011;57391;51.306;22.680;2024-03-25T06:49:37;14.50;;;9.40;;
70049;SDS011;57391;51.306;22.680;2024-03-25T06:51:38;17.70;;;9.80;;
70049;SDS011;57391;51.306;22.680;2024-03-25T06:53:40;17.20;;;9.60;;
70049;SDS011;57391;51.306;22.680;2024-03-25T06:55:41;17.00;;;9.60;;
70049;SDS011;57391;51.306;22.680;2024-03-25T06:57:43;24.70;;;12.30;;
70049;SDS011;57391;51.306;22.680;2024-03-25T06:59:45;16.10;;;9.40;;
70049;SDS011;57391;51.306;22.680;2024-03-25T07:01:47;15.70;;;9.80;;
70049;SDS011;57391;51.306;22.680;2024-03-25T07:03:48;19.20;;;10.50;;
70049;SDS011;57391;51.306;22.680;2024-03-25T07:05:51;15.90;;;9.20;;
70049;SDS011;57391;51.306;22.680;2024-03-25T07:07:56;16.70;;;9.20;;
70049;SDS011;57391;51.306;22.680;2024-03-25T07:09:58;15.70;;;9.20;;
70049;SDS011;57391;51.306;22.680;2024-03-25T07:11:59;17.40;;;9.20;;
70049;SDS011;57391;51.306;22.680;2024-03-25T07:14:01;17.50;;;9.50;;
70049;SDS011;57391;51.306;22.680;2024-03-25T07:16:03;14.50;;;8.40;;
70049;SDS011;57391;51.306;22.680;2024-03-25T07:18:05;14.00;;;8.00;;
70049;SDS011;57391;51.306;22.680;2024-03-25T07:20:08;17.20;;;8.80;;
70049;SDS011;57391;51.306;22.680;2024-03-25T07:22:10;16.20;;;9.50;;
70049;SDS011;57391;51.306;22.680;2024-03-25T07:24:12;15.20;;;9.10;;
70049;SDS011;57391;51.306;22.680;2024-03-25T07:26:13;16.50;;;9.10;;
70049;SDS011;57391;51.306;22.680;2024-03-25T07:28:15;15.50;;;8.60;;
70049;SDS011;57391;51.306;22.680;2024-03-25T07:30:17;18.90;;;8.80;;
70049;SDS011;57391;51.306;22.680;2024-03-25T07:32:18;17.50;;;8.80;;
70049;SDS011;57391;51.306;22.680;2024-03-25T07:34:20;13.40;;;8.00;;
70049;SDS011;57391;51.306;22.680;2024-03-25T07:36:21;13.70;;;7.60;;
70049;SDS011;57391;51.306;22.680;2024-03-25T07:38:23;16.30;;;8.40;;
70049;SDS011;57391;51.306;22.680;2024-03-25T07:40:25;15.60;;;7.90;;
70049;SDS011;57391;51.306;22.680;2024-03-25T07:42:26;14.30;;;8.00;;
70049;SDS011;57391;51.306;22.680;2024-03-25T07:44:28;15.40;;;9.10;;
70049;SDS011;57391;51.306;22.680;2024-03-25T07:46:30;12.90;;;7.90;;
70049;SDS011;57391;51.306;22.680;2024-03-25T07:48:32;16.00;;;8.90;;
70049;SDS011;57391;51.306;22.680;2024-03-25T07:50:34;16.00;;;8.90;;
70049;SDS011;57391;51.306;22.680;2024-03-25T07:52:36;14.50;;;7.40;;
70049;SDS011;57391;51.306;22.680;2024-03-25T07:54:44;14.90;;;8.20;;
70049;SDS011;57391;51.306;22.680;2024-03-25T07:56:45;13.20;;;7.80;;
70049;SDS011;57391;51.306;22.680;2024-03-25T07:58:47;14.50;;;9.00;;
70049;SDS011;57391;51.306;22.680;2024-03-25T08:00:48;13.80;;;7.80;;
70049;SDS011;57391;51.306;22.680;2024-03-25T08:02:50;13.30;;;7.10;;
70049;SDS011;57391;51.306;22.680;2024-03-25T08:04:52;12.60;;;7.30;;
70049;SDS011;57391;51.306;22.680;2024-03-25T08:06:53;13.60;;;7.90;;
70049;SDS011;57391;51.306;22.680;2024-03-25T08:08:55;13.50;;;7.60;;
70049;SDS011;57391;51.306;22.680;2024-03-25T08:10:57;13.00;;;7.40;;
70049;SDS011;57391;51.306;22.680;2024-03-25T08:12:58;10.80;;;7.00;;
70049;SDS011;57391;51.306;22.680;2024-03-25T08:15:00;15.40;;;8.00;;
70049;SDS011;57391;51.306;22.680;2024-03-25T08:17:02;13.90;;;8.00;;
70049;SDS011;57391;51.306;22.680;2024-03-25T08:19:05;13.60;;;7.80;;
70049;SDS011;57391;51.306;22.680;2024-03-25T08:21:07;13.20;;;7.40;;
70049;SDS011;57391;51.306;22.680;2024-03-25T08:23:09;15.10;;;8.30;;
70049;SDS011;57391;51.306;22.680;2024-03-25T08:25:11;14.80;;;7.70;;
70049;SDS011;57391;51.306;22.680;2024-03-25T08:27:13;12.70;;;7.40;;
70049;SDS011;57391;51.306;22.680;2024-03-25T08:29:15;13.00;;;8.20;;
70049;SDS011;57391;51.306;22.680;2024-03-25T08:31:16;11.30;;;7.20;;
70049;SDS011;57391;51.306;22.680;2024-03-25T08:33:18;11.20;;;6.60;;
70049;SDS011;57391;51.306;22.680;2024-03-25T08:35:19;10.90;;;5.70;;
70049;SDS011;57391;51.306;22.680;2024-03-25T08:37:21;10.30;;;6.20;;
70049;SDS011;57391;51.306;22.680;2024-03-25T08:39:22;10.70;;;5.90;;
70049;SDS011;57391;51.306;22.680;2024-03-25T08:41:24;13.60;;;6.90;;
70049;SDS011;57391;51.306;22.680;2024-03-25T08:43:26;13.20;;;7.40;;
70049;SDS011;57391;51.306;22.680;2024-03-25T08:45:27;11.20;;;6.20;;
70049;SDS011;57391;51.306;22.680;2024-03-25T08:47:29;11.10;;;6.80;;
70049;SDS011;57391;51.306;22.680;2024-03-25T08:49:31;13.10;;;6.60;;
70049;SDS011;57391;51.306;22.680;2024-03-25T08:51:32;11.00;;;6.50;;
70049;SDS011;57391;51.306;22.680;2024-03-25T08:53:35;10.50;;;5.70;;
70049;SDS011;57391;51.306;22.680;2024-03-25T08:55:37;13.10;;;6.70;;
70049;SDS011;57391;51.306;22.680;2024-03-25T08:57:38;10.90;;;6.30;;
70049;SDS011;57391;51.306;22.680;2024-03-25T08:59:40;9.60;;;5.80;;
70049;SDS011;57391;51.306;22.680;2024-03-25T09:01:42;10.60;;;5.70;;
70049;SDS011;57391;51.306;22.680;2024-03-25T09:03:43;11.10;;;5.50;;
70049;SDS011;57391;51.306;22.680;2024-03-25T09:05:46;9.60;;;5.30;;
70049;SDS011;57391;51.306;22.680;2024-03-25T09:07:51;10.30;;;5.60;;
70049;SDS011;57391;51.306;22.680;2024-03-25T09:09:53;10.20;;;4.90;;
70049;SDS011;57391;51.306;22.680;2024-03-25T09:12:13;8.90;;;5.10;;
70049;SDS011;57391;51.306;22.680;2024-03-25T09:14:15;8.40;;;4.40;;
70049;SDS011;57391;51.306;22.680;2024-03-25T09:16:17;8.20;;;4.60;;
70049;SDS011;57391;51.306;22.680;2024-03-25T09:18:18;9.00;;;5.30;;
70049;SDS011;57391;51.306;22.680;2024-03-25T09:20:20;9.10;;;5.00;;
70049;SDS011;57391;51.306;22.680;2024-03-25T09:22:22;10.00;;;5.00;;
70049;SDS011;57391;51.306;22.680;2024-03-25T09:24:24;10.40;;;5.00;;
70049;SDS011;57391;51.306;22.680;2024-03-25T09:26:26;9.40;;;5.20;;
70049;SDS011;57391;51.306;22.680;2024-03-25T09:28:28;9.90;;;5.30;;
70049;SDS011;57391;51.306;22.680;2024-03-25T09:30:29;11.40;;;5.40;;
70049;SDS011;57391;51.306;22.680;2024-03-25T09:32:31;8.90;;;5.20;;
70049;SDS011;57391;51.306;22.680;2024-03-25T09:34:33;9.20;;;5.10;;
70049;SDS011;57391;51.306;22.680;2024-03-25T09:36:34;9.60;;;5.40;;
70049;SDS011;57391;51.306;22.680;2024-03-25T09:38:36;8.80;;;4.40;;
70049;SDS011;57391;51.306;22.680;2024-03-25T09:40:41;9.10;;;4.30;;
70049;SDS011;57391;51.306;22.680;2024-03-25T09:42:55;6.90;;;4.00;;
70049;SDS011;57391;51.306;22.680;2024-03-25T09:44:58;7.80;;;4.10;;
70049;SDS011;57391;51.306;22.680;2024-03-25T09:47:00;6.80;;;3.80;;
70049;SDS011;57391;51.306;22.680;2024-03-25T09:49:02;7.40;;;4.50;;
70049;SDS011;57391;51.306;22.680;2024-03-25T09:51:07;8.70;;;4.30;;
70049;SDS011;57391;51.306;22.680;2024-03-25T09:53:10;8.20;;;4.10;;
70049;SDS011;57391;51.306;22.680;2024-03-25T09:55:12;8.50;;;4.30;;
70049;SDS011;57391;51.306;22.680;2024-03-25T09:57:15;8.20;;;4.30;;
70049;SDS011;57391;51.306;22.680;2024-03-25T09:59:18;7.30;;;4.30;;
70049;SDS011;57391;51.306;22.680;2024-03-25T10:01:20;7.90;;;4.00;;
70049;SDS011;57391;51.306;22.680;2024-03-25T10:03:22;7.20;;;3.60;;
70049;SDS011;57391;51.306;22.680;2024-03-25T10:05:24;6.20;;;3.60;;
70049;SDS011;57391;51.306;22.680;2024-03-25T10:07:25;5.90;;;3.50;;
70049;SDS011;57391;51.306;22.680;2024-03-25T10:09:27;6.70;;;3.70;;
70049;SDS011;57391;51.306;22.680;2024-03-25T10:11:29;6.90;;;3.80;;
70049;SDS011;57391;51.306;22.680;2024-03-25T10:13:33;5.80;;;3.50;;
70049;SDS011;57391;51.306;22.680;2024-03-25T10:15:34;6.60;;;3.70;;
70049;SDS011;57391;51.306;22.680;2024-03-25T10:17:36;6.00;;;3.40;;
70049;SDS011;57391;51.306;22.680;2024-03-25T10:19:38;6.70;;;3.40;;
70049;SDS011;57391;51.306;22.680;2024-03-25T10:21:40;7.60;;;3.40;;
70049;SDS011;57391;51.306;22.680;2024-03-25T10:23:43;6.80;;;3.40;;
70049;SDS011;57391;51.306;22.680;2024-03-25T10:25:47;6.20;;;3.40;;
70049;SDS011;57391;51.306;22.680;2024-03-25T10:27:57;6.10;;;3.20;;
70049;SDS011;57391;51.306;22.680;2024-03-25T10:30:00;6.10;;;3.50;;
70049;SDS011;57391;51.306;22.680;2024-03-25T10:32:02;6.90;;;3.40;;
70049;SDS011;57391;51.306;22.680;2024-03-25T10:34:05;6.30;;;3.70;;
70049;SDS011;57391;51.306;22.680;2024-03-25T10:36:08;6.50;;;3.70;;
70049;SDS011;57391;51.306;22.680;2024-03-25T10:38:10;6.10;;;3.30;;
70049;SDS011;57391;51.306;22.680;2024-03-25T10:40:14;6.50;;;3.60;;
70049;SDS011;57391;51.306;22.680;2024-03-25T10:42:20;6.00;;;3.50;;
70049;SDS011;57391;51.306;22.680;2024-03-25T10:44:25;5.90;;;3.40;;
70049;SDS011;57391;51.306;22.680;2024-03-25T10:46:28;6.50;;;3.70;;
70049;SDS011;57391;51.306;22.680;2024-03-25T10:48:35;6.10;;;3.50;;
70049;SDS011;57391;51.306;22.680;2024-03-25T10:50:43;6.20;;;3.80;;
70049;SDS011;57391;51.306;22.680;2024-03-25T10:52:45;6.20;;;3.70;;
70049;SDS011;57391;51.306;22.680;2024-03-25T10:54:47;6.90;;;3.70;;
70049;SDS011;57391;51.306;22.680;2024-03-25T10:56:50;6.20;;;3.70;;
70049;SDS011;57391;51.306;22.680;2024-03-25T10:58:53;7.90;;;3.60;;
70049;SDS011;57391;51.306;22.680;2024-03-25T11:00:56;6.10;;;3.60;;
70049;SDS011;57391;51.306;22.680;2024-03-25T11:02:59;6.00;;;3.70;;
70049;SDS011;57391;51.306;22.680;2024-03-25T11:05:02;7.10;;;3.20;;
70049;SDS011;57391;51.306;22.680;2024-03-25T11:07:12;8.20;;;4.10;;
70049;SDS011;57391;51.306;22.680;2024-03-25T11:09:26;8.60;;;3.80;;
70049;SDS011;57391;51.306;22.680;2024-03-25T11:11:32;6.80;;;3.80;;
70049;SDS011;57391;51.306;22.680;2024-03-25T11:13:34;7.00;;;3.80;;
70049;SDS011;57391;51.306;22.680;2024-03-25T11:15:37;7.60;;;4.20;;
70049;SDS011;57391;51.306;22.680;2024-03-25T11:17:50;6.90;;;3.70;;
70049;SDS011;57391;51.306;22.680;2024-03-25T11:19:52;6.00;;;3.30;;
70049;SDS011;57391;51.306;22.680;2024-03-25T11:22:12;10.70;;;4.00;;
70049;SDS011;57391;51.306;22.680;2024-03-25T11:24:14;7.10;;;3.40;;
70049;SDS011;57391;51.306;22.680;2024-03-25T11:26:24;7.00;;;3.20;;
70049;SDS011;57391;51.306;22.680;2024-03-25T11:28:28;5.70;;;3.50;;
70049;SDS011;57391;51.306;22.680;2024-03-25T11:30:31;7.40;;;3.60;;
70049;SDS011;57391;51.306;22.680;2024-03-25T11:32:52;6.40;;;3.30;;
70049;SDS011;57391;51.306;22.680;2024-03-25T11:34:55;6.90;;;3.60;;
70049;SDS011;57391;51.306;22.680;2024-03-25T11:36:56;6.50;;;3.40;;
70049;SDS011;57391;51.306;22.680;2024-03-25T11:39:03;6.70;;;3.40;;
70049;SDS011;57391;51.306;22.680;2024-03-25T11:41:06;7.00;;;3.50;;
70049;SDS011;57391;51.306;22.680;2024-03-25T11:43:08;7.20;;;3.70;;
70049;SDS011;57391;51.306;22.680;2024-03-25T11:45:18;7.60;;;3.50;;
70049;SDS011;57391;51.306;22.680;2024-03-25T11:47:21;6.50;;;3.80;;
70049;SDS011;57391;51.306;22.680;2024-03-25T11:49:23;5.80;;;3.30;;
70049;SDS011;57391;51.306;22.680;2024-03-25T11:51:24;5.80;;;3.50;;
70049;SDS011;57391;51.306;22.680;2024-03-25T11:53:26;6.80;;;3.40;;
70049;SDS011;57391;51.306;22.680;2024-03-25T11:55:31;6.70;;;3.30;;
70049;SDS011;57391;51.306;22.680;2024-03-25T11:57:33;6.10;;;3.20;;